sensor_id;sensor_type;location;lat;lon;timestamp;pressure;altitude;pressure_sealevel;temperature;humidity
44131;BME280;29792;48.726;9.248;2023-04-08T00:00:31;97122.25;;;8.33;100.00
44131;BME280;29792;48.726;9.248;2023-04-08T00:02:57;97118.06;;;8.32;100.00
44131;BME280;29792;48.726;9.248;2023-04-08T00:05:22;97119.81;;;8.32;100.00
44131;BME280;29792;48.726;9.248;2023-04-08T00:07:47;97120.06;;;8.27;100.00
44131;BME280;29792;48.726;9.248;2023-04-08T00:10:26;97119.00;;;8.31;100.00
44131;BME280;29792;48.726;9.248;2023-04-08T00:12:51;97124.72;;;8.35;100.00
44131;BME280;29792;48.726;9.248;2023-04-08T00:15:16;97124.72;;;8.35;100.00
44131;BME280;29792;48.726;9.248;2023-04-08T00:17:41;97122.25;;;8.33;100.00
44131;BME280;29792;48.726;9.248;2023-04-08T00:20:07;97125.63;;;8.34;100.00
44131;BME280;29792;48.726;9.248;2023-04-08T00:22:32;97120.53;;;8.34;100.00
44131;BME280;29792;48.726;9.248;2023-04-08T00:24:58;97122.34;;;8.32;100.00
44131;BME280;29792;48.726;9.248;2023-04-08T00:27:23;97118.78;;;8.34;100.00
44131;BME280;29792;48.726;9.248;2023-04-08T00:29:50;97117.84;;;8.35;100.00
44131;BME280;29792;48.726;9.248;2023-04-08T00:32:15;97119.47;;;8.36;100.00
44131;BME280;29792;48.726;9.248;2023-04-08T00:34:40;97122.94;;;8.35;100.00
44131;BME280;29792;48.726;9.248;2023-04-08T00:37:06;97127.38;;;8.33;100.00
44131;BME280;29792;48.726;9.248;2023-04-08T00:39:31;97126.00;;;8.28;100.00
44131;BME280;29792;48.726;9.248;2023-04-08T00:41:56;97122.84;;;8.24;100.00
44131;BME280;29792;48.726;9.248;2023-04-08T00:44:22;97117.03;;;8.22;100.00
44131;BME280;29792;48.726;9.248;2023-04-08T00:46:47;97131.53;;;8.22;100.00
44131;BME280;29792;48.726;9.248;2023-04-08T00:49:12;97131.53;;;8.22;100.00
44131;BME280;29792;48.726;9.248;2023-04-08T00:51:38;97129.31;;;8.17;100.00
44131;BME280;29792;48.726;9.248;2023-04-08T00:54:04;97133.69;;;8.15;100.00
44131;BME280;29792;48.726;9.248;2023-04-08T00:56:30;97134.50;;;8.16;100.00
44131;BME280;29792;48.726;9.248;2023-04-08T00:58:56;97136.25;;;8.15;100.00
44131;BME280;29792;48.726;9.248;2023-04-08T01:01:43;97137.06;;;8.16;100.00
44131;BME280;29792;48.726;9.248;2023-04-08T01:04:39;97140.19;;;8.19;100.00
44131;BME280;29792;48.726;9.248;2023-04-08T01:07:12;97129.06;;;8.20;100.00
44131;BME280;29792;48.726;9.248;2023-04-08T01:09:44;97125.94;;;8.17;100.00
44131;BME280;29792;48.726;9.248;2023-04-08T01:12:11;97132.69;;;8.18;100.00
44131;BME280;29792;48.726;9.248;2023-04-08T01:14:42;97134.41;;;8.17;100.00
44131;BME280;29792;48.726;9.248;2023-04-08T01:17:09;97129.41;;;8.16;100.00
44131;BME280;29792;48.726;9.248;2023-04-08T01:19:38;97128.50;;;8.17;100.00
44131;BME280;29792;48.726;9.248;2023-04-08T01:25:17;97132.53;;;8.19;100.00
44131;BME280;29792;48.726;9.248;2023-04-08T01:27:44;97138.47;;;8.20;100.00
44131;BME280;29792;48.726;9.248;2023-04-08T01:30:11;97130.00;;;8.19;100.00
44131;BME280;29792;48.726;9.248;2023-04-08T01:32:38;97136.97;;;8.17;100.00
44131;BME280;29792;48.726;9.248;2023-04-08T01:35:05;97132.78;;;8.16;100.00
44131;BME280;29792;48.726;9.248;2023-04-08T01:37:32;97136.25;;;8.15;100.00
44131;BME280;29792;48.726;9.248;2023-04-08T01:39:58;97132.16;;;8.13;100.00
44131;BME280;29792;48.726;9.248;2023-04-08T01:42:26;97132.25;;;8.11;100.00
44131;BME280;29792;48.726;9.248;2023-04-08T01:44:55;97136.44;;;8.12;100.00
44131;BME280;29792;48.726;9.248;2023-04-08T01:47:21;97132.25;;;8.11;100.00
44131;BME280;29792;48.726;9.248;2023-04-08T01:49:49;97130.75;;;8.09;100.00
44131;BME280;29792;48.726;9.248;2023-04-08T01:52:15;97130.13;;;8.05;100.00
44131;BME280;29792;48.726;9.248;2023-04-08T01:54:42;97137.06;;;8.03;100.00
44131;BME280;29792;48.726;9.248;2023-04-08T01:57:10;97127.81;;;8.02;100.00
44131;BME280;29792;48.726;9.248;2023-04-08T01:59:36;97126.84;;;8.03;100.00
44131;BME280;29792;48.726;9.248;2023-04-08T02:02:04;97131.97;;;8.03;100.00
44131;BME280;29792;48.726;9.248;2023-04-08T02:04:30;97124.63;;;7.98;100.00
44131;BME280;29792;48.726;9.248;2023-04-08T02:06:57;97129.25;;;7.93;100.00
44131;BME280;29792;48.726;9.248;2023-04-08T02:09:23;97127.91;;;7.88;100.00
44131;BME280;29792;48.726;9.248;2023-04-08T02:11:49;97128.03;;;7.86;100.00
44131;BME280;29792;48.726;9.248;2023-04-08T02:14:14;97127.22;;;7.86;100.00
44131;BME280;29792;48.726;9.248;2023-04-08T02:16:46;97131.38;;;7.87;100.00
44131;BME280;29792;48.726;9.248;2023-04-08T02:19:19;97125.47;;;7.86;100.00
44131;BME280;29792;48.726;9.248;2023-04-08T02:21:51;97133.00;;;7.88;100.00
44131;BME280;29792;48.726;9.248;2023-04-08T02:24:20;97132.19;;;7.87;100.00
44131;BME280;29792;48.726;9.248;2023-04-08T02:26:48;97131.16;;;7.90;100.00
44131;BME280;29792;48.726;9.248;2023-04-08T02:29:16;97136.16;;;7.91;100.00
44131;BME280;29792;48.726;9.248;2023-04-08T02:31:42;97136.06;;;7.93;100.00
44131;BME280;29792;48.726;9.248;2023-04-08T02:34:09;97136.38;;;7.88;100.00
44131;BME280;29792;48.726;9.248;2023-04-08T02:36:34;97129.53;;;7.89;100.00
44131;BME280;29792;48.726;9.248;2023-04-08T02:39:00;97132.19;;;7.87;100.00
44131;BME280;29792;48.726;9.248;2023-04-08T02:41:29;97133.81;;;7.88;100.00
44131;BME280;29792;48.726;9.248;2023-04-08T02:43:55;97127.22;;;7.86;100.00
44131;BME280;29792;48.726;9.248;2023-04-08T02:46:20;97130.78;;;7.83;100.00
44131;BME280;29792;48.726;9.248;2023-04-08T02:48:46;97129.31;;;7.79;100.00
44131;BME280;29792;48.726;9.248;2023-04-08T02:51:11;97132.69;;;7.80;100.00
44131;BME280;29792;48.726;9.248;2023-04-08T02:53:36;97132.00;;;7.78;100.00
44131;BME280;29792;48.726;9.248;2023-04-08T02:56:02;97129.56;;;7.76;100.00
44131;BME280;29792;48.726;9.248;2023-04-08T02:58:27;97128.72;;;7.76;100.00
44131;BME280;29792;48.726;9.248;2023-04-08T03:00:52;97136.47;;;7.74;100.00
44131;BME280;29792;48.726;9.248;2023-04-08T03:03:17;97136.47;;;7.74;100.00
44131;BME280;29792;48.726;9.248;2023-04-08T03:05:43;97138.31;;;7.72;100.00
44131;BME280;29792;48.726;9.248;2023-04-08T03:08:08;97131.38;;;7.74;100.00
44131;BME280;29792;48.726;9.248;2023-04-08T03:10:33;97135.47;;;7.77;100.00
44131;BME280;29792;48.726;9.248;2023-04-08T03:12:59;97134.56;;;7.78;100.00
44131;BME280;29792;48.726;9.248;2023-04-08T03:15:24;97132.00;;;7.78;100.00
44131;BME280;29792;48.726;9.248;2023-04-08T03:17:49;97131.88;;;7.79;100.00
44131;BME280;29792;48.726;9.248;2023-04-08T03:20:15;97134.56;;;7.78;100.00
44131;BME280;29792;48.726;9.248;2023-04-08T03:22:40;97137.91;;;7.78;100.00
44131;BME280;29792;48.726;9.248;2023-04-08T03:25:05;97138.72;;;7.79;100.00
44131;BME280;29792;48.726;9.248;2023-04-08T03:27:31;97144.63;;;7.79;100.00
44131;BME280;29792;48.726;9.248;2023-04-08T03:29:56;97136.28;;;7.77;100.00
44131;BME280;29792;48.726;9.248;2023-04-08T03:32:22;97137.91;;;7.78;100.00
44131;BME280;29792;48.726;9.248;2023-04-08T03:34:47;97140.34;;;7.80;100.00
44131;BME280;29792;48.726;9.248;2023-04-08T03:37:15;97140.34;;;7.80;100.00
44131;BME280;29792;48.726;9.248;2023-04-08T03:39:40;97143.94;;;7.77;100.00
44131;BME280;29792;48.726;9.248;2023-04-08T03:42:05;97145.66;;;7.77;100.00
44131;BME280;29792;48.726;9.248;2023-04-08T03:44:31;97145.56;;;7.78;100.00
44131;BME280;29792;48.726;9.248;2023-04-08T03:46:56;97145.56;;;7.78;100.00
44131;BME280;29792;48.726;9.248;2023-04-08T03:49:21;97143.72;;;7.80;100.00
44131;BME280;29792;48.726;9.248;2023-04-08T03:51:47;97154.00;;;7.79;100.00
44131;BME280;29792;48.726;9.248;2023-04-08T03:54:12;97152.41;;;7.78;100.00
44131;BME280;29792;48.726;9.248;2023-04-08T03:56:37;97140.56;;;7.77;100.00
44131;BME280;29792;48.726;9.248;2023-04-08T03:59:02;97143.13;;;7.77;100.00
44131;BME280;29792;48.726;9.248;2023-04-08T04:01:28;97139.75;;;7.76;100.00
44131;BME280;29792;48.726;9.248;2023-04-08T04:03:54;97136.47;;;7.74;100.00
44131;BME280;29792;48.726;9.248;2023-04-08T04:06:20;97136.56;;;7.73;100.00
44131;BME280;29792;48.726;9.248;2023-04-08T04:08:45;97142.50;;;7.73;100.00
44131;BME280;29792;48.726;9.248;2023-04-08T04:11:10;97147.59;;;7.73;100.00
44131;BME280;29792;48.726;9.248;2023-04-08T04:13:35;97146.88;;;7.71;100.00
44131;BME280;29792;48.726;9.248;2023-04-08T04:16:01;97150.47;;;7.69;100.00
44131;BME280;29792;48.726;9.248;2023-04-08T04:18:26;97149.75;;;7.66;100.00
44131;BME280;29792;48.726;9.248;2023-04-08T04:20:51;97148.09;;;7.65;100.00
44131;BME280;29792;48.726;9.248;2023-04-08T04:23:16;97141.47;;;7.63;100.00
44131;BME280;29792;48.726;9.248;2023-04-08T04:25:42;97141.38;;;7.64;100.00
44131;BME280;29792;48.726;9.248;2023-04-08T04:28:07;97149.25;;;7.61;100.00
44131;BME280;29792;48.726;9.248;2023-04-08T04:30:36;97147.78;;;7.57;100.00
44131;BME280;29792;48.726;9.248;2023-04-08T04:33:01;97151.47;;;7.53;100.00
44131;BME280;29792;48.726;9.248;2023-04-08T04:35:26;97152.38;;;7.52;100.00
44131;BME280;29792;48.726;9.248;2023-04-08T04:37:52;97151.56;;;7.52;100.00
44131;BME280;29792;48.726;9.248;2023-04-08T04:40:17;97155.75;;;7.53;100.00
44131;BME280;29792;48.726;9.248;2023-04-08T04:42:43;97164.91;;;7.55;100.00
44131;BME280;29792;48.726;9.248;2023-04-08T04:45:08;97158.91;;;7.56;100.00
44131;BME280;29792;48.726;9.248;2023-04-08T04:47:34;97157.16;;;7.57;100.00
44131;BME280;29792;48.726;9.248;2023-04-08T04:49:59;97158.00;;;7.57;100.00
44131;BME280;29792;48.726;9.248;2023-04-08T04:52:25;97159.63;;;7.58;100.00
44131;BME280;29792;48.726;9.248;2023-04-08T04:54:50;97162.09;;;7.60;100.00
44131;BME280;29792;48.726;9.248;2023-04-08T04:57:15;97163.81;;;7.59;100.00
44131;BME280;29792;48.726;9.248;2023-04-08T04:59:41;97168.19;;;7.57;100.00
44131;BME280;29792;48.726;9.248;2023-04-08T05:02:06;97169.09;;;7.56;100.00
44131;BME280;29792;48.726;9.248;2023-04-08T05:04:31;97175.09;;;7.55;100.00
44131;BME280;29792;48.726;9.248;2023-04-08T05:06:58;97174.41;;;7.53;100.00
44131;BME280;29792;48.726;9.248;2023-04-08T05:09:23;97179.59;;;7.52;100.00
44131;BME280;29792;48.726;9.248;2023-04-08T05:11:49;97179.69;;;7.50;100.00
44131;BME280;29792;48.726;9.248;2023-04-08T05:14:14;97179.69;;;7.50;100.00
44131;BME280;29792;48.726;9.248;2023-04-08T05:16:39;97188.06;;;7.52;100.00
44131;BME280;29792;48.726;9.248;2023-04-08T05:19:05;97180.44;;;7.52;100.00
44131;BME280;29792;48.726;9.248;2023-04-08T05:21:30;97191.00;;;7.46;100.00
44131;BME280;29792;48.726;9.248;2023-04-08T05:23:56;97188.56;;;7.45;100.00
44131;BME280;29792;48.726;9.248;2023-04-08T05:26:22;97185.91;;;7.46;100.00
44131;BME280;29792;48.726;9.248;2023-04-08T05:28:48;97185.19;;;7.44;100.00
44131;BME280;29792;48.726;9.248;2023-04-08T05:31:17;97186.13;;;7.43;100.00
44131;BME280;29792;48.726;9.248;2023-04-08T05:33:42;97192.13;;;7.42;100.00
44131;BME280;29792;48.726;9.248;2023-04-08T05:36:09;97188.94;;;7.39;100.00
44131;BME280;29792;48.726;9.248;2023-04-08T05:38:34;97192.44;;;7.38;100.00
44131;BME280;29792;48.726;9.248;2023-04-08T05:40:59;97200.78;;;7.40;100.00
44131;BME280;29792;48.726;9.248;2023-04-08T05:43:25;97209.97;;;7.42;100.00
44131;BME280;29792;48.726;9.248;2023-04-08T05:45:50;97204.56;;;7.47;100.00
44131;BME280;29792;48.726;9.248;2023-04-08T05:48:15;97202.63;;;7.50;100.00
44131;BME280;29792;48.726;9.248;2023-04-08T05:50:40;97201.63;;;7.53;100.00
44131;BME280;29792;48.726;9.248;2023-04-08T05:53:07;97197.94;;;7.57;100.00
44131;BME280;29792;48.726;9.248;2023-04-08T05:55:33;97198.50;;;7.62;100.00
44131;BME280;29792;48.726;9.248;2023-04-08T05:57:58;97205.09;;;7.64;100.00
44131;BME280;29792;48.726;9.248;2023-04-08T06:00:23;97206.56;;;7.69;100.00
44131;BME280;29792;48.726;9.248;2023-04-08T06:02:48;97218.25;;;7.71;100.00
44131;BME280;29792;48.726;9.248;2023-04-08T06:05:14;97216.53;;;7.72;100.00
44131;BME280;29792;48.726;9.248;2023-04-08T06:07:39;97218.88;;;7.75;100.00
44131;BME280;29792;48.726;9.248;2023-04-08T06:10:06;97215.34;;;7.77;100.00
44131;BME280;29792;48.726;9.248;2023-04-08T06:12:34;97220.22;;;7.80;100.00
44131;BME280;29792;48.726;9.248;2023-04-08T06:15:00;97230.31;;;7.82;100.00
44131;BME280;29792;48.726;9.248;2023-04-08T06:17:25;97218.56;;;7.79;100.00
44131;BME280;29792;48.726;9.248;2023-04-08T06:19:50;97227.97;;;7.79;100.00
44131;BME280;29792;48.726;9.248;2023-04-08T06:22:16;97227.03;;;7.80;100.00
44131;BME280;29792;48.726;9.248;2023-04-08T06:24:41;97234.69;;;7.80;100.00
44131;BME280;29792;48.726;9.248;2023-04-08T06:27:06;97238.16;;;7.79;100.00
44131;BME280;29792;48.726;9.248;2023-04-08T06:29:32;97227.78;;;7.82;100.00
44131;BME280;29792;48.726;9.248;2023-04-08T06:31:57;97232.59;;;7.86;100.00
44131;BME280;29792;48.726;9.248;2023-04-08T06:34:23;97231.53;;;7.89;100.00
44131;BME280;29792;48.726;9.248;2023-04-08T06:36:48;97239.91;;;7.91;100.00
44131;BME280;29792;48.726;9.248;2023-04-08T06:39:14;97237.28;;;7.92;100.00
44131;BME280;29792;48.726;9.248;2023-04-08T06:41:41;97244.59;;;7.97;100.00
44131;BME280;29792;48.726;9.248;2023-04-08T06:44:06;97243.41;;;8.02;100.00
44131;BME280;29792;48.726;9.248;2023-04-08T06:46:31;97243.00;;;8.09;100.00
44131;BME280;29792;48.726;9.248;2023-04-08T06:48:56;97250.44;;;8.12;100.00
44131;BME280;29792;48.726;9.248;2023-04-08T06:51:21;97243.41;;;8.15;100.00
44131;BME280;29792;48.726;9.248;2023-04-08T06:53:47;97248.19;;;8.20;100.00
44131;BME280;29792;48.726;9.248;2023-04-08T06:56:12;97241.16;;;8.23;100.00
44131;BME280;29792;48.726;9.248;2023-04-08T06:58:37;97253.81;;;8.25;100.00
44131;BME280;29792;48.726;9.248;2023-04-08T07:01:03;97255.97;;;8.31;100.00
44131;BME280;29792;48.726;9.248;2023-04-08T07:03:28;97254.25;;;8.31;100.00
44131;BME280;29792;48.726;9.248;2023-04-08T07:05:53;97254.31;;;8.30;100.00
44131;BME280;29792;48.726;9.248;2023-04-08T07:08:19;97262.97;;;8.27;100.00
44131;BME280;29792;48.726;9.248;2023-04-08T07:10:44;97259.84;;;8.24;100.00
44131;BME280;29792;48.726;9.248;2023-04-08T07:13:09;97261.56;;;8.23;100.00
44131;BME280;29792;48.726;9.248;2023-04-08T07:15:35;97259.50;;;8.28;100.00
44131;BME280;29792;48.726;9.248;2023-04-08T07:18:00;97260.34;;;8.29;100.00
44131;BME280;29792;48.726;9.248;2023-04-08T07:20:25;97266.91;;;8.33;100.00
44131;BME280;29792;48.726;9.248;2023-04-08T07:22:51;97268.41;;;8.35;100.00
44131;BME280;29792;48.726;9.248;2023-04-08T07:25:16;97269.97;;;8.38;100.00
44131;BME280;29792;48.726;9.248;2023-04-08T07:27:42;97271.28;;;8.43;100.00
44131;BME280;29792;48.726;9.248;2023-04-08T07:30:07;97276.69;;;8.52;100.00
44131;BME280;29792;48.726;9.248;2023-04-08T07:32:33;97273.00;;;8.56;100.00
44131;BME280;29792;48.726;9.248;2023-04-08T07:34:59;97278.75;;;8.59;100.00
44131;BME280;29792;48.726;9.248;2023-04-08T07:37:25;97279.34;;;8.63;100.00
44131;BME280;29792;48.726;9.248;2023-04-08T07:39:50;97279.72;;;8.69;100.00
44131;BME280;29792;48.726;9.248;2023-04-08T07:42:15;97271.34;;;8.80;100.00
44131;BME280;29792;48.726;9.248;2023-04-08T07:44:41;97276.53;;;8.91;100.00
44131;BME280;29792;48.726;9.248;2023-04-08T07:47:06;97282.84;;;8.98;100.00
44131;BME280;29792;48.726;9.248;2023-04-08T07:49:32;97282.59;;;9.14;100.00
44131;BME280;29792;48.726;9.248;2023-04-08T07:51:57;97290.22;;;9.27;100.00
44131;BME280;29792;48.726;9.248;2023-04-08T07:54:23;97293.88;;;9.35;100.00
44131;BME280;29792;48.726;9.248;2023-04-08T07:56:48;97284.72;;;9.44;100.00
44131;BME280;29792;48.726;9.248;2023-04-08T07:59:13;97290.31;;;9.49;100.00
44131;BME280;29792;48.726;9.248;2023-04-08T08:01:38;97287.63;;;9.63;100.00
44131;BME280;29792;48.726;9.248;2023-04-08T08:04:04;97288.56;;;9.73;100.00
44131;BME280;29792;48.726;9.248;2023-04-08T08:06:29;97284.78;;;9.79;100.00
44131;BME280;29792;48.726;9.248;2023-04-08T08:08:58;97282.78;;;9.82;100.00
44131;BME280;29792;48.726;9.248;2023-04-08T08:11:23;97285.59;;;9.90;100.00
44131;BME280;29792;48.726;9.248;2023-04-08T08:13:48;97287.84;;;9.95;100.00
44131;BME280;29792;48.726;9.248;2023-04-08T08:16:14;97290.06;;;10.00;100.00
44131;BME280;29792;48.726;9.248;2023-04-08T08:18:40;97291.72;;;10.12;100.00
44131;BME280;29792;48.726;9.248;2023-04-08T08:21:06;97299.69;;;10.20;100.00
44131;BME280;29792;48.726;9.248;2023-04-08T08:23:32;97300.38;;;10.22;100.00
44131;BME280;29792;48.726;9.248;2023-04-08T08:26:00;97299.78;;;10.18;100.00
44131;BME280;29792;48.726;9.248;2023-04-08T08:28:26;97301.69;;;10.27;100.00
44131;BME280;29792;48.726;9.248;2023-04-08T08:30:52;97303.56;;;10.37;100.00
44131;BME280;29792;48.726;9.248;2023-04-08T08:33:17;97309.25;;;10.40;100.00
44131;BME280;29792;48.726;9.248;2023-04-08T08:35:44;97305.75;;;10.41;99.44
44131;BME280;29792;48.726;9.248;2023-04-08T08:38:09;97308.00;;;10.46;99.10
44131;BME280;29792;48.726;9.248;2023-04-08T08:40:35;97304.63;;;10.45;97.97
44131;BME280;29792;48.726;9.248;2023-04-08T08:43:00;97315.22;;;10.52;98.37
44131;BME280;29792;48.726;9.248;2023-04-08T08:45:26;97318.84;;;10.60;98.29
44131;BME280;29792;48.726;9.248;2023-04-08T08:47:51;97304.28;;;10.72;97.99
44131;BME280;29792;48.726;9.248;2023-04-08T08:50:17;97314.06;;;10.89;98.09
44131;BME280;29792;48.726;9.248;2023-04-08T08:52:49;97315.31;;;11.06;97.68
44131;BME280;29792;48.726;9.248;2023-04-08T08:55:17;97314.63;;;11.26;97.46
44131;BME280;29792;48.726;9.248;2023-04-08T08:57:42;97317.81;;;11.51;96.40
44131;BME280;29792;48.726;9.248;2023-04-08T09:00:08;97318.09;;;11.68;94.59
44131;BME280;29792;48.726;9.248;2023-04-08T09:02:33;97312.47;;;11.85;94.01
44131;BME280;29792;48.726;9.248;2023-04-08T09:05:03;97311.91;;;12.03;93.33
44131;BME280;29792;48.726;9.248;2023-04-08T09:07:34;97322.69;;;12.17;90.86
44131;BME280;29792;48.726;9.248;2023-04-08T09:09:59;97319.50;;;12.25;88.50
44131;BME280;29792;48.726;9.248;2023-04-08T09:12:25;97319.00;;;12.31;86.82
44131;BME280;29792;48.726;9.248;2023-04-08T09:15:05;97321.78;;;12.39;84.80
44131;BME280;29792;48.726;9.248;2023-04-08T09:17:36;97318.56;;;12.47;84.48
44131;BME280;29792;48.726;9.248;2023-04-08T09:20:09;97321.31;;;12.55;82.66
44131;BME280;29792;48.726;9.248;2023-04-08T09:22:56;97329.06;;;12.65;81.69
44131;BME280;29792;48.726;9.248;2023-04-08T09:25:22;97327.63;;;12.72;81.19
44131;BME280;29792;48.726;9.248;2023-04-08T09:27:48;97328.50;;;12.91;81.52
44131;BME280;29792;48.726;9.248;2023-04-08T09:30:14;97327.06;;;13.08;79.55
44131;BME280;29792;48.726;9.248;2023-04-08T09:32:50;97327.06;;;13.29;77.57
44131;BME280;29792;48.726;9.248;2023-04-08T09:35:17;97330.06;;;13.44;75.28
44131;BME280;29792;48.726;9.248;2023-04-08T09:37:42;97331.81;;;13.62;75.07
44131;BME280;29792;48.726;9.248;2023-04-08T09:40:08;97334.31;;;13.83;75.10
44131;BME280;29792;48.726;9.248;2023-04-08T09:42:35;97324.81;;;13.93;72.62
44131;BME280;29792;48.726;9.248;2023-04-08T09:45:04;97325.75;;;14.11;72.23
44131;BME280;29792;48.726;9.248;2023-04-08T09:47:43;97322.72;;;14.35;71.78
44131;BME280;29792;48.726;9.248;2023-04-08T09:50:13;97314.47;;;14.51;67.95
44131;BME280;29792;48.726;9.248;2023-04-08T09:52:43;97320.81;;;14.66;66.13
44131;BME280;29792;48.726;9.248;2023-04-08T09:55:11;97318.88;;;14.68;63.71
44131;BME280;29792;48.726;9.248;2023-04-08T09:57:57;97320.75;;;14.76;63.85
44131;BME280;29792;48.726;9.248;2023-04-08T10:00:27;97322.22;;;14.88;62.61
44131;BME280;29792;48.726;9.248;2023-04-08T10:03:20;97324.22;;;14.94;60.46
44131;BME280;29792;48.726;9.248;2023-04-08T10:05:49;97321.84;;;15.10;61.33
44131;BME280;29792;48.726;9.248;2023-04-08T10:08:17;97326.13;;;15.19;59.97
44131;BME280;29792;48.726;9.248;2023-04-08T10:10:42;97323.94;;;15.24;60.49
44131;BME280;29792;48.726;9.248;2023-04-08T10:13:08;97325.78;;;15.14;57.20
44131;BME280;29792;48.726;9.248;2023-04-08T10:15:34;97320.91;;;15.02;56.71
44131;BME280;29792;48.726;9.248;2023-04-08T10:23:04;97327.63;;;14.95;55.66
44131;BME280;29792;48.726;9.248;2023-04-08T10:25:33;97323.31;;;14.76;55.64
44131;BME280;29792;48.726;9.248;2023-04-08T10:28:00;97329.13;;;14.50;54.96
44131;BME280;29792;48.726;9.248;2023-04-08T10:32:56;97331.44;;;13.96;55.54
44131;BME280;29792;48.726;9.248;2023-04-08T10:35:53;97332.13;;;13.69;56.26
44131;BME280;29792;48.726;9.248;2023-04-08T10:38:20;97331.84;;;13.53;55.87
44131;BME280;29792;48.726;9.248;2023-04-08T10:40:47;97328.81;;;13.38;55.49
44131;BME280;29792;48.726;9.248;2023-04-08T10:43:13;97327.72;;;13.21;56.00
44131;BME280;29792;48.726;9.248;2023-04-08T10:45:40;97334.91;;;13.07;56.43
44131;BME280;29792;48.726;9.248;2023-04-08T10:48:22;97326.50;;;12.95;57.68
44131;BME280;29792;48.726;9.248;2023-04-08T10:50:57;97329.56;;;12.79;57.39
44131;BME280;29792;48.726;9.248;2023-04-08T10:53:36;97329.19;;;12.63;57.64
44131;BME280;29792;48.726;9.248;2023-04-08T10:58:31;97337.31;;;12.38;59.08
44131;BME280;29792;48.726;9.248;2023-04-08T11:01:03;97334.97;;;12.35;58.85
44131;BME280;29792;48.726;9.248;2023-04-08T11:03:31;97339.22;;;12.24;59.15
44131;BME280;29792;48.726;9.248;2023-04-08T11:05:58;97336.47;;;12.16;59.37
44131;BME280;29792;48.726;9.248;2023-04-08T11:08:31;97333.72;;;12.08;59.06
44131;BME280;29792;48.726;9.248;2023-04-08T11:10:57;97337.03;;;11.99;58.29
44131;BME280;29792;48.726;9.248;2023-04-08T11:13:25;97332.38;;;11.93;58.81
44131;BME280;29792;48.726;9.248;2023-04-08T11:15:51;97331.72;;;11.91;58.69
44131;BME280;29792;48.726;9.248;2023-04-08T11:18:16;97336.97;;;11.90;58.50
44131;BME280;29792;48.726;9.248;2023-04-08T11:20:43;97334.28;;;11.91;59.38
44131;BME280;29792;48.726;9.248;2023-04-08T11:23:15;97332.38;;;11.93;59.48
44131;BME280;29792;48.726;9.248;2023-04-08T11:25:41;97334.81;;;11.95;59.91
44131;BME280;29792;48.726;9.248;2023-04-08T11:28:07;97329.06;;;12.02;59.33
44131;BME280;29792;48.726;9.248;2023-04-08T11:30:33;97329.78;;;12.04;58.78
44131;BME280;29792;48.726;9.248;2023-04-08T11:32:58;97331.03;;;12.10;58.12
44131;BME280;29792;48.726;9.248;2023-04-08T11:35:27;97331.91;;;12.20;59.44
44131;BME280;29792;48.726;9.248;2023-04-08T11:37:53;97335.19;;;12.22;58.20
44131;BME280;29792;48.726;9.248;2023-04-08T11:40:20;97338.16;;;12.27;58.69
44131;BME280;29792;48.726;9.248;2023-04-08T11:42:46;97327.91;;;12.27;56.94
44131;BME280;29792;48.726;9.248;2023-04-08T11:45:14;97329.91;;;12.23;56.57
44131;BME280;29792;48.726;9.248;2023-04-08T11:47:40;97327.59;;;12.20;56.42
44131;BME280;29792;48.726;9.248;2023-04-08T11:50:06;97332.59;;;12.22;56.55
44131;BME280;29792;48.726;9.248;2023-04-08T11:52:47;97328.53;;;12.19;57.06
44131;BME280;29792;48.726;9.248;2023-04-08T11:57:48;97324.44;;;12.17;57.69
44131;BME280;29792;48.726;9.248;2023-04-08T12:00:13;97327.00;;;12.17;58.15
44131;BME280;29792;48.726;9.248;2023-04-08T12:02:39;97328.66;;;12.18;58.39
44131;BME280;29792;48.726;9.248;2023-04-08T12:05:05;97332.03;;;12.18;58.11
44131;BME280;29792;48.726;9.248;2023-04-08T12:07:30;97325.72;;;12.22;58.70
44131;BME280;29792;48.726;9.248;2023-04-08T12:09:56;97326.16;;;12.28;58.29
44131;BME280;29792;48.726;9.248;2023-04-08T12:12:21;97335.59;;;12.27;58.43
44131;BME280;29792;48.726;9.248;2023-04-08T12:14:47;97332.84;;;12.19;57.91
44131;BME280;29792;48.726;9.248;2023-04-08T12:17:12;97329.72;;;12.15;57.86
44131;BME280;29792;48.726;9.248;2023-04-08T12:19:37;97328.34;;;12.11;58.25
44131;BME280;29792;48.726;9.248;2023-04-08T12:22:02;97340.25;;;12.12;58.87
44131;BME280;29792;48.726;9.248;2023-04-08T12:24:28;97341.59;;;12.16;59.36
44131;BME280;29792;48.726;9.248;2023-04-08T12:26:53;97332.97;;;12.17;59.35
44131;BME280;29792;48.726;9.248;2023-04-08T12:29:18;97337.03;;;12.20;58.99
44131;BME280;29792;48.726;9.248;2023-04-08T12:31:43;97337.75;;;12.22;59.30
44131;BME280;29792;48.726;9.248;2023-04-08T12:34:09;97340.31;;;12.22;59.13
44131;BME280;29792;48.726;9.248;2023-04-08T12:36:34;97339.81;;;12.28;60.04
44131;BME280;29792;48.726;9.248;2023-04-08T12:39:00;97332.53;;;12.33;59.29
44131;BME280;29792;48.726;9.248;2023-04-08T12:41:25;97336.38;;;12.39;59.54
44131;BME280;29792;48.726;9.248;2023-04-08T12:43:51;97335.47;;;12.49;60.32
44131;BME280;29792;48.726;9.248;2023-04-08T12:46:16;97337.56;;;12.55;59.25
44131;BME280;29792;48.726;9.248;2023-04-08T12:48:41;97332.53;;;12.54;58.40
44131;BME280;29792;48.726;9.248;2023-04-08T12:51:09;97332.72;;;12.62;59.88
44131;BME280;29792;48.726;9.248;2023-04-08T12:53:34;97337.91;;;12.72;59.53
44131;BME280;29792;48.726;9.248;2023-04-08T12:55:59;97334.00;;;12.77;59.30
44131;BME280;29792;48.726;9.248;2023-04-08T12:58:24;97333.75;;;12.80;58.09
44131;BME280;29792;48.726;9.248;2023-04-08T13:00:50;97332.38;;;12.76;58.40
44131;BME280;29792;48.726;9.248;2023-04-08T13:03:15;97332.06;;;12.70;58.22
44131;BME280;29792;48.726;9.248;2023-04-08T13:05:42;97332.41;;;12.55;58.32
44131;BME280;29792;48.726;9.248;2023-04-08T13:08:07;97332.78;;;12.51;58.87
44131;BME280;29792;48.726;9.248;2023-04-08T13:10:32;97338.19;;;12.48;59.41
44131;BME280;29792;48.726;9.248;2023-04-08T13:12:58;97340.88;;;12.46;58.85